createdAt,value
2018-08-24T00:00:31.557Z,78.20
2018-08-24T00:03:00.629Z,78.50
2018-08-24T00:05:29.748Z,78.10
2018-08-24T00:07:58.900Z,78.00
2018-08-24T00:10:27.945Z,77.90
2018-08-24T00:12:57.057Z,77.70
2018-08-24T00:15:26.223Z,77.70
2018-08-24T00:17:55.281Z,77.60
2018-08-24T00:20:24.353Z,77.30
2018-08-24T00:22:53.569Z,77.10
2018-08-24T00:25:22.728Z,76.80
2018-08-24T00:27:51.932Z,76.60
2018-08-24T00:30:21.022Z,77.20
2018-08-24T00:32:50.824Z,77.60
2018-08-24T00:35:20.002Z,77.90
2018-08-24T00:37:49.682Z,78.70
2018-08-24T00:40:19.321Z,79.50
2018-08-24T00:42:48.450Z,80.30
2018-08-24T00:45:18.391Z,80.00
2018-08-24T00:47:47.656Z,79.90
2018-08-24T00:50:16.700Z,79.30
2018-08-24T00:52:45.848Z,78.90
2018-08-24T00:55:14.953Z,78.40
2018-08-24T00:57:44.024Z,77.60
2018-08-24T01:00:13.083Z,77.80
2018-08-24T01:02:42.232Z,78.00
2018-08-24T01:05:11.352Z,78.00
2018-08-24T01:07:46.556Z,77.80
2018-08-24T01:10:20.924Z,77.80
2018-08-24T01:12:50.111Z,78.40
2018-08-24T01:15:19.192Z,78.70
2018-08-24T01:17:53.760Z,79.10
2018-08-24T01:20:27.077Z,79.30
2018-08-24T01:22:56.115Z,79.50
2018-08-24T01:25:25.284Z,79.40
2018-08-24T01:27:54.444Z,79.50
2018-08-24T01:30:23.512Z,80.30
2018-08-24T01:32:52.542Z,80.10
2018-08-24T01:35:21.588Z,80.60
2018-08-24T01:37:50.656Z,84.20
2018-08-24T01:40:19.706Z,86.30
2018-08-24T01:42:50.555Z,88.30
2018-08-24T01:45:19.671Z,87.00
2018-08-24T01:47:48.712Z,88.90
2018-08-24T01:50:17.782Z,88.30
2018-08-24T01:52:46.828Z,89.30
2018-08-24T01:55:16.014Z,90.20
2018-08-24T01:57:45.779Z,91.20
2018-08-24T02:00:15.416Z,91.60
2018-08-24T02:02:46.115Z,92.00
2018-08-24T02:05:15.249Z,92.50
2018-08-24T02:07:44.365Z,91.60
2018-08-24T02:10:18.835Z,92.10
2018-08-24T02:13:54.612Z,92.90
2018-08-24T02:16:23.776Z,92.70
2018-08-24T02:18:58.092Z,91.60
2018-08-24T02:21:32.488Z,91.80
2018-08-24T02:24:09.523Z,91.60
2018-08-24T02:26:38.915Z,90.60
2018-08-24T02:29:07.957Z,90.30
2018-08-24T02:31:42.347Z,90.90
2018-08-24T02:34:11.716Z,91.00
2018-08-24T02:36:40.899Z,89.20
2018-08-24T02:39:12.835Z,89.40
2018-08-24T02:41:42.088Z,89.20
2018-08-24T02:44:11.492Z,89.10
2018-08-24T02:46:41.510Z,88.40
2018-08-24T02:49:10.620Z,90.00
2018-08-24T02:51:39.730Z,90.60
2018-08-24T02:54:09.987Z,90.40
2018-08-24T02:56:39.276Z,90.60
2018-08-24T02:59:09.078Z,89.80
2018-08-24T03:01:38.934Z,90.20
2018-08-24T03:04:08.029Z,89.80
2018-08-24T03:06:37.122Z,89.80
2018-08-24T03:09:08.919Z,89.30
2018-08-24T03:11:38.008Z,88.10
2018-08-24T03:14:07.629Z,89.20
2018-08-24T03:16:36.684Z,89.80
2018-08-24T03:19:05.760Z,90.30
2018-08-24T03:21:34.800Z,91.00
2018-08-24T03:24:03.977Z,90.20
2018-08-24T03:26:33.138Z,90.40
2018-08-24T03:29:02.314Z,89.60
2018-08-24T03:31:31.363Z,88.60
2018-08-24T03:34:00.429Z,88.10
2018-08-24T03:36:29.518Z,89.50
2018-08-24T03:38:58.560Z,89.80
2018-08-24T03:41:27.684Z,89.30
2018-08-24T03:43:56.708Z,88.70
2018-08-24T03:46:25.793Z,88.80
2018-08-24T03:48:54.894Z,87.70
2018-08-24T03:51:24.514Z,88.60
2018-08-24T03:53:55.330Z,87.10
2018-08-24T03:56:24.447Z,87.00
2018-08-24T03:58:53.486Z,86.50
2018-08-24T04:01:22.575Z,86.90
2018-08-24T04:03:52.482Z,87.40
2018-08-24T04:06:21.529Z,87.50
2018-08-24T04:08:50.601Z,87.40
2018-08-24T04:11:20.350Z,88.30
2018-08-24T04:13:49.388Z,88.40
2018-08-24T04:16:18.535Z,88.20
2018-08-24T04:18:47.695Z,88.10
2018-08-24T04:21:16.749Z,87.90
2018-08-24T04:23:45.877Z,87.60
2018-08-24T04:26:14.985Z,88.00
2018-08-24T04:28:44.031Z,87.50
2018-08-24T04:31:13.101Z,88.20
2018-08-24T04:33:42.177Z,87.90
2018-08-24T04:36:11.342Z,88.30
2018-08-24T04:38:40.543Z,88.50
2018-08-24T04:41:09.607Z,88.40
2018-08-24T04:43:38.664Z,89.00
2018-08-24T04:46:07.778Z,88.90
2018-08-24T04:48:37.611Z,88.90
2018-08-24T04:51:06.708Z,88.00
2018-08-24T04:53:37.063Z,88.10
2018-08-24T04:56:06.406Z,87.90
2018-08-24T04:58:35.563Z,88.10
2018-08-24T05:01:04.684Z,87.40
2018-08-24T05:03:33.829Z,88.50
2018-08-24T05:06:03.013Z,88.60
2018-08-24T05:08:32.729Z,90.20
2018-08-24T05:11:02.470Z,89.20
2018-08-24T05:13:32.152Z,89.20
2018-08-24T05:16:01.701Z,89.80
2018-08-24T05:18:30.765Z,90.40
2018-08-24T05:20:59.994Z,89.60
2018-08-24T05:23:29.176Z,89.70
2018-08-24T05:25:58.324Z,89.60
2018-08-24T05:28:28.129Z,89.20
2018-08-24T05:30:57.464Z,89.00
2018-08-24T05:33:27.153Z,88.70
2018-08-24T05:35:56.245Z,88.60
2018-08-24T05:38:25.441Z,89.30
2018-08-24T05:40:54.598Z,88.40
2018-08-24T05:43:24.201Z,88.40
2018-08-24T05:45:53.331Z,87.60
2018-08-24T05:48:22.658Z,86.90
2018-08-24T05:50:51.896Z,86.20
2018-08-24T05:53:21.089Z,84.70
2018-08-24T05:55:50.719Z,85.00
2018-08-24T05:58:19.800Z,84.60
2018-08-24T06:00:49.739Z,83.10
2018-08-24T06:03:18.764Z,82.50
2018-08-24T06:05:53.210Z,82.10
2018-08-24T06:08:22.330Z,81.00
2018-08-24T06:10:51.544Z,80.30
2018-08-24T06:13:21.577Z,80.50
2018-08-24T06:15:50.810Z,78.60
2018-08-24T06:18:19.813Z,79.60
2018-08-24T06:20:48.951Z,81.10
2018-08-24T06:23:18.029Z,79.30
2018-08-24T06:25:47.141Z,78.60
2018-08-24T06:28:16.268Z,78.20
2018-08-24T06:30:45.364Z,76.60
2018-08-24T06:33:14.452Z,75.60
2018-08-24T06:35:43.638Z,73.00
2018-08-24T06:38:12.870Z,73.80
2018-08-24T06:40:42.109Z,71.70
2018-08-24T06:43:11.229Z,74.20
2018-08-24T06:45:40.345Z,75.00
2018-08-24T06:48:09.485Z,74.10
2018-08-24T06:50:39.234Z,75.10
2018-08-24T06:53:08.366Z,75.00
2018-08-24T06:55:37.456Z,72.50
2018-08-24T06:58:06.633Z,72.70
2018-08-24T07:00:35.815Z,71.60
2018-08-24T07:03:04.939Z,70.80
2018-08-24T07:05:34.070Z,68.00
2018-08-24T07:08:03.307Z,68.50
2018-08-24T07:10:32.492Z,67.20
2018-08-24T07:13:01.743Z,65.80
2018-08-24T07:15:31.352Z,65.10
2018-08-24T07:18:00.445Z,65.30
2018-08-24T07:20:30.004Z,63.40
2018-08-24T07:22:59.124Z,63.40
2018-08-24T07:25:28.233Z,62.80
2018-08-24T07:27:57.420Z,64.20
2018-08-24T07:30:26.563Z,62.00
2018-08-24T07:32:56.115Z,61.00
2018-08-24T07:35:25.194Z,59.40
2018-08-24T07:37:54.323Z,57.70
2018-08-24T07:40:23.372Z,53.30
2018-08-24T07:42:52.437Z,51.20
2018-08-24T07:45:21.541Z,50.20
2018-08-24T07:47:50.742Z,49.90
2018-08-24T07:50:19.828Z,49.30
2018-08-24T07:52:48.913Z,47.30
2018-08-24T07:55:18.046Z,49.30
2018-08-24T07:57:47.231Z,50.20
2018-08-24T08:00:16.332Z,50.40
2018-08-24T08:02:46.200Z,50.90
2018-08-24T08:05:15.567Z,52.30
2018-08-24T08:07:44.871Z,52.50
2018-08-24T08:10:14.033Z,53.30
2018-08-24T08:12:43.246Z,53.70
2018-08-24T08:15:12.174Z,54.00
2018-08-24T08:17:41.832Z,55.10
2018-08-24T08:20:11.150Z,55.10
2018-08-24T08:22:40.212Z,55.30
2018-08-24T08:25:09.281Z,55.60
2018-08-24T08:27:38.374Z,55.90
2018-08-24T08:30:07.528Z,55.50
2018-08-24T08:32:36.921Z,54.50
2018-08-24T08:35:05.992Z,54.60
2018-08-24T08:37:35.062Z,53.50
2018-08-24T08:40:04.439Z,53.20
2018-08-24T08:42:33.637Z,51.50
2018-08-24T08:45:02.826Z,50.30
2018-08-24T08:47:32.052Z,50.40
2018-08-24T08:50:01.260Z,48.30
2018-08-24T08:52:31.049Z,46.90
2018-08-24T08:55:00.064Z,47.50
2018-08-24T08:57:29.208Z,47.20
2018-08-24T08:59:58.337Z,48.20
2018-08-24T09:02:27.456Z,48.90
2018-08-24T09:04:56.633Z,48.40
2018-08-24T09:07:26.403Z,50.60
2018-08-24T09:09:56.045Z,50.40
2018-08-24T09:12:25.871Z,49.50
2018-08-24T09:14:55.053Z,46.90
2018-08-24T09:17:29.598Z,44.50
2018-08-24T09:20:03.950Z,43.40
2018-08-24T09:22:38.995Z,38.50
2018-08-24T09:25:13.347Z,37.30
2018-08-24T09:28:51.495Z,35.10
2018-08-24T09:31:25.845Z,34.20
2018-08-24T09:36:29.672Z,42.40
2018-08-24T09:38:58.899Z,43.00
2018-08-24T09:41:27.968Z,58.90
2018-08-24T09:43:58.575Z,64.20
2018-08-24T09:46:33.601Z,71.20
2018-08-24T09:49:08.019Z,79.30
2018-08-24T09:51:37.060Z,83.80
2018-08-24T09:54:07.412Z,89.60
2018-08-24T09:56:37.508Z,85.10
2018-08-24T09:59:06.653Z,87.90
2018-08-24T10:01:41.043Z,90.20
2018-08-24T10:04:16.085Z,93.40
2018-08-24T10:06:51.220Z,91.10
2018-08-24T10:09:20.205Z,93.90
2018-08-24T10:11:49.306Z,99.90
2018-08-24T10:14:18.530Z,93.70
2018-08-24T10:16:47.642Z,89.40
2018-08-24T10:19:16.756Z,84.00
2018-08-24T10:21:45.806Z,84.70
2018-08-24T10:24:14.929Z,80.80
2018-08-24T10:26:43.980Z,81.50
2018-08-24T10:29:13.097Z,84.30
2018-08-24T11:08:45.966Z,95.50
2018-08-24T11:11:15.126Z,94.00
2018-08-24T11:13:44.258Z,96.60
2018-08-24T11:16:13.444Z,92.70
2018-08-24T11:18:42.666Z,93.90
2018-08-24T11:21:11.715Z,90.40
2018-08-24T11:23:40.556Z,88.80
2018-08-24T11:26:09.421Z,84.80
2018-08-24T11:28:39.229Z,86.50
2018-08-24T11:31:08.043Z,85.40
2018-08-24T11:33:37.146Z,80.00
2018-08-24T11:36:06.411Z,82.80
2018-08-24T11:38:35.419Z,77.70
2018-08-24T11:41:04.651Z,79.80
2018-08-24T11:43:33.670Z,82.60
2018-08-24T11:46:02.752Z,81.50
2018-08-24T11:48:31.786Z,81.90
2018-08-24T11:51:01.231Z,84.50
2018-08-24T11:53:30.366Z,76.10
2018-08-24T11:55:59.414Z,80.10
2018-08-24T11:58:30.141Z,85.20
2018-08-24T12:00:59.246Z,90.50
2018-08-24T12:03:28.367Z,93.10
2018-08-24T12:05:57.211Z,98.20
2018-08-24T12:08:26.169Z,99.90
2018-08-24T12:10:54.906Z,99.90
2018-08-24T12:13:24.425Z,99.90
2018-08-24T12:15:53.275Z,99.90
2018-08-24T12:18:22.149Z,99.90
2018-08-24T12:20:51.021Z,99.90
2018-08-24T12:23:20.779Z,99.90
2018-08-24T12:25:50.553Z,99.90
2018-08-24T12:28:19.700Z,99.90
2018-08-24T12:30:48.920Z,99.90
2018-08-24T12:33:18.644Z,99.90
2018-08-24T12:35:47.735Z,99.90
2018-08-24T12:38:16.933Z,99.90
2018-08-24T12:40:45.999Z,99.90
2018-08-24T12:43:15.086Z,99.40
2018-08-24T12:45:44.180Z,99.90
2018-08-24T12:48:13.347Z,99.90
2018-08-24T12:50:43.035Z,99.90
2018-08-24T12:53:12.145Z,96.00
2018-08-24T12:55:41.388Z,96.50
2018-08-24T12:58:10.531Z,89.10
2018-08-24T13:00:39.699Z,90.40
2018-08-24T13:03:08.682Z,86.20
2018-08-24T13:05:38.651Z,88.40
2018-08-24T13:08:07.713Z,86.00
2018-08-24T13:10:36.831Z,85.30
2018-08-24T13:13:06.361Z,91.50
2018-08-24T13:15:35.453Z,91.40
2018-08-24T13:18:04.607Z,94.70
2018-08-24T13:20:33.737Z,94.30
2018-08-24T13:23:02.808Z,93.50
2018-08-24T13:25:31.939Z,90.90
2018-08-24T13:28:01.712Z,93.70
2018-08-24T13:30:30.809Z,95.60
2018-08-24T13:32:59.847Z,92.60
2018-08-24T13:35:28.931Z,94.40
2018-08-24T13:37:58.769Z,96.80
2018-08-24T13:40:27.889Z,96.10
2018-08-24T13:42:56.972Z,96.70
2018-08-24T13:45:26.055Z,94.60
2018-08-24T13:47:55.179Z,94.60
2018-08-24T13:50:24.264Z,92.70
2018-08-24T13:52:53.389Z,90.80
2018-08-24T13:55:22.541Z,92.90
2018-08-24T13:57:51.743Z,92.60
2018-08-24T14:00:20.974Z,92.50
2018-08-24T14:02:50.059Z,93.60
2018-08-24T14:05:20.570Z,94.40
2018-08-24T14:07:49.673Z,94.60
2018-08-24T14:10:18.896Z,94.40
2018-08-24T14:12:48.796Z,95.30
2018-08-24T14:15:17.899Z,90.20
2018-08-24T14:17:54.124Z,89.10
2018-08-24T14:20:24.623Z,92.60
2018-08-24T14:22:53.805Z,92.60
2018-08-24T14:25:23.018Z,87.00
2018-08-24T14:27:53.163Z,85.90
2018-08-24T14:32:50.638Z,81.90
2018-08-24T14:35:19.837Z,83.90
2018-08-24T14:37:49.017Z,84.20
2018-08-24T14:40:18.172Z,83.90
2018-08-24T14:42:47.284Z,84.00
2018-08-24T14:45:16.353Z,77.10
2018-08-24T14:47:46.261Z,79.40
2018-08-24T14:50:16.106Z,79.30
2018-08-24T14:52:46.344Z,80.40
2018-08-24T14:55:15.432Z,80.30
2018-08-24T14:57:44.515Z,77.20
2018-08-24T15:00:13.806Z,74.80
2018-08-24T15:02:42.931Z,80.70
2018-08-24T15:05:12.816Z,75.50
2018-08-24T15:07:41.892Z,73.00
2018-08-24T15:10:11.760Z,73.10
2018-08-24T15:12:41.634Z,75.90
2018-08-24T15:15:10.705Z,70.10
2018-08-24T15:17:39.876Z,71.20
2018-08-24T15:20:09.102Z,72.10
2018-08-24T15:22:38.196Z,65.50
2018-08-24T15:25:07.349Z,60.10
2018-08-24T15:27:36.493Z,59.30
2018-08-24T15:30:06.054Z,63.10
2018-08-24T15:32:35.673Z,61.80
2018-08-24T15:35:06.225Z,59.50
2018-08-24T15:37:35.386Z,60.40
2018-08-24T15:40:06.167Z,58.90
2018-08-24T15:42:35.214Z,59.60
2018-08-24T15:45:04.340Z,58.20
2018-08-24T15:47:33.438Z,58.20
2018-08-24T15:50:02.582Z,57.40
2018-08-24T15:52:31.728Z,58.70
2018-08-24T15:55:00.804Z,57.20
2018-08-24T15:57:30.530Z,58.90
2018-08-24T16:00:00.464Z,59.50
2018-08-24T16:02:29.530Z,57.70
2018-08-24T16:04:58.628Z,59.40
2018-08-24T16:07:27.775Z,59.80
2018-08-24T16:09:57.576Z,60.10
2018-08-24T16:12:27.352Z,57.20
2018-08-24T16:14:56.510Z,56.70
2018-08-24T16:17:25.642Z,56.70
2018-08-24T16:19:55.455Z,55.20
2018-08-24T16:22:24.491Z,57.20
2018-08-24T16:24:53.616Z,57.30
2018-08-24T16:27:24.455Z,57.30
2018-08-24T16:29:55.684Z,58.20
2018-08-24T16:32:24.967Z,57.10
2018-08-24T16:34:54.083Z,59.00
2018-08-24T16:37:23.973Z,59.70
2018-08-24T16:39:53.821Z,58.30
2018-08-24T16:42:23.043Z,59.10
2018-08-24T16:44:52.181Z,59.30
2018-08-24T16:47:21.324Z,57.70
2018-08-24T16:49:50.425Z,60.10
2018-08-24T16:52:19.591Z,59.20
2018-08-24T16:54:48.643Z,59.10
2018-08-24T16:57:17.724Z,57.80
2018-08-24T16:59:46.916Z,58.90
2018-08-24T17:02:16.677Z,59.20
2018-08-24T17:04:45.869Z,58.70
2018-08-24T17:07:14.934Z,59.90
2018-08-24T17:09:44.236Z,60.40
2018-08-24T17:12:13.368Z,60.10
2018-08-24T17:14:42.518Z,61.80
2018-08-24T17:17:11.903Z,61.80
2018-08-24T17:19:41.051Z,61.20
2018-08-24T17:22:10.862Z,61.80
2018-08-24T17:24:39.980Z,63.10
2018-08-24T17:27:09.065Z,64.10
2018-08-24T17:29:38.166Z,64.80
2018-08-24T17:32:07.871Z,64.30
2018-08-24T17:34:37.035Z,65.10
2018-08-24T17:37:06.262Z,64.50
2018-08-24T17:39:35.390Z,66.20
2018-08-24T17:42:04.622Z,66.60
2018-08-24T17:44:33.692Z,65.50
2018-08-24T17:47:03.178Z,67.60
2018-08-24T17:49:32.272Z,67.30
2018-08-24T17:52:01.761Z,67.40
2018-08-24T17:54:30.920Z,65.90
2018-08-24T17:56:59.945Z,66.20
2018-08-24T17:59:29.688Z,67.20
2018-08-24T18:01:58.829Z,67.60
2018-08-24T18:04:27.938Z,66.70
2018-08-24T18:06:57.155Z,67.70
2018-08-24T18:09:26.961Z,67.30
2018-08-24T18:11:56.061Z,68.20
2018-08-24T18:14:25.129Z,69.00
2018-08-24T18:16:54.188Z,68.60
2018-08-24T18:19:23.229Z,69.90
2018-08-24T18:21:52.416Z,70.60
2018-08-24T18:24:21.564Z,71.70
2018-08-24T18:26:50.678Z,72.40
2018-08-24T18:29:19.909Z,72.60
2018-08-24T18:31:49.060Z,71.70
2018-08-24T18:34:18.218Z,73.70
2018-08-24T18:36:47.403Z,73.60
2018-08-24T18:39:16.377Z,74.20
2018-08-24T18:41:45.538Z,74.80
2018-08-24T18:44:15.830Z,75.10
2018-08-24T18:46:44.977Z,75.10
2018-08-24T18:49:14.224Z,75.70
2018-08-24T18:51:44.081Z,76.30
2018-08-24T18:54:13.157Z,75.40
2018-08-24T18:56:42.349Z,75.50
2018-08-24T18:59:11.433Z,75.00
2018-08-24T19:01:40.543Z,76.30
2018-08-24T19:04:09.611Z,75.80
2018-08-24T19:06:38.699Z,77.00
2018-08-24T19:09:08.914Z,79.20
2018-08-24T19:11:43.048Z,79.90
2018-08-24T19:14:12.954Z,80.50
2018-08-24T19:16:42.849Z,79.70
2018-08-24T19:19:17.358Z,79.70
2018-08-24T19:21:48.085Z,79.90
2018-08-24T19:24:17.271Z,79.10
2018-08-24T19:26:46.889Z,79.70
2018-08-24T19:29:21.284Z,78.40
2018-08-24T19:31:51.120Z,78.10
2018-08-24T19:34:20.344Z,77.80
2018-08-24T19:36:49.418Z,78.80
2018-08-24T19:39:18.550Z,79.00
2018-08-24T19:41:52.808Z,77.50
2018-08-24T19:44:22.127Z,78.40
2018-08-24T19:46:51.247Z,79.10
2018-08-24T19:49:22.307Z,79.50
2018-08-24T19:51:51.748Z,79.90
2018-08-24T19:54:21.420Z,78.90
2018-08-24T19:56:50.877Z,80.10
2018-08-24T19:59:19.989Z,80.20
2018-08-24T20:01:49.144Z,80.90
2018-08-24T20:04:18.258Z,80.90
2018-08-24T20:06:53.967Z,81.30
2018-08-24T20:09:28.539Z,81.50
2018-08-24T20:11:57.622Z,81.50
2018-08-24T20:14:31.968Z,81.40
2018-08-24T20:17:06.404Z,81.10
2018-08-24T20:19:35.632Z,80.80
2018-08-24T20:22:05.904Z,80.30
2018-08-24T20:24:35.130Z,81.10
2018-08-24T20:27:04.142Z,79.50
2018-08-24T20:29:33.363Z,80.10
2018-08-24T20:32:02.472Z,80.90
2018-08-24T20:34:31.544Z,81.40
2018-08-24T20:37:00.632Z,80.80
2018-08-24T20:39:29.728Z,80.80
2018-08-24T20:41:58.811Z,80.90
2018-08-24T20:44:27.883Z,81.30
2018-08-24T20:46:57.082Z,82.00
2018-08-24T20:49:26.236Z,83.10
2018-08-24T20:51:55.428Z,83.00
2018-08-24T20:54:25.839Z,83.70
2018-08-24T20:56:56.524Z,82.30
2018-08-24T20:59:25.661Z,81.90
2018-08-24T21:01:55.362Z,82.10
2018-08-24T21:04:24.465Z,83.10
2018-08-24T21:06:53.653Z,82.10
2018-08-24T21:09:22.795Z,82.70
2018-08-24T21:11:52.056Z,82.10
2018-08-24T21:14:21.332Z,81.30
2018-08-24T21:16:50.484Z,80.60
2018-08-24T21:19:21.082Z,81.50
2018-08-24T21:21:50.957Z,82.00
2018-08-24T21:24:21.264Z,81.80
2018-08-24T21:26:51.145Z,82.20
2018-08-24T21:29:20.368Z,82.40
2018-08-24T21:31:49.444Z,83.40
2018-08-24T21:34:18.561Z,83.60
2018-08-24T21:36:49.793Z,83.30
2018-08-24T21:39:19.538Z,83.80
2018-08-24T21:41:48.611Z,84.20
2018-08-24T21:44:17.994Z,84.40
2018-08-24T21:46:47.968Z,85.30
2018-08-24T21:49:17.321Z,86.00
2018-08-24T21:51:46.405Z,86.10
2018-08-24T21:54:15.653Z,86.80
2018-08-24T21:56:44.723Z,87.70
2018-08-24T21:59:13.810Z,87.50
2018-08-24T22:01:42.951Z,87.80
2018-08-24T22:04:12.016Z,88.10
2018-08-24T22:06:41.113Z,88.40
2018-08-24T22:09:11.148Z,88.40
2018-08-24T22:11:40.924Z,87.50
2018-08-24T22:14:10.147Z,85.50
2018-08-24T22:16:39.178Z,85.00
2018-08-24T22:19:08.245Z,84.70
2018-08-24T22:21:38.148Z,84.80
2018-08-24T22:24:07.313Z,84.70
2018-08-24T22:26:36.430Z,84.10
2018-08-24T22:29:05.794Z,83.50
2018-08-24T22:31:34.990Z,83.50
2018-08-24T22:34:04.120Z,83.40
2018-08-24T22:36:33.218Z,83.10
2018-08-24T22:39:02.390Z,83.80
2018-08-24T22:41:32.076Z,83.50
2018-08-24T22:44:01.497Z,83.60
2018-08-24T22:46:30.556Z,82.60
2018-08-24T22:48:59.618Z,81.80
2018-08-24T22:51:28.725Z,82.50
2018-08-24T22:53:57.939Z,81.50
2018-08-24T22:56:28.276Z,82.00
2018-08-24T22:58:57.626Z,80.90
2018-08-24T23:01:26.692Z,80.00
2018-08-24T23:03:56.267Z,80.80
2018-08-24T23:06:25.347Z,80.90
2018-08-24T23:08:54.431Z,80.80
2018-08-24T23:11:24.331Z,80.90
2018-08-24T23:13:54.332Z,80.90
2018-08-24T23:16:23.501Z,82.10
2018-08-24T23:18:52.627Z,79.70
2018-08-24T23:21:21.708Z,80.80
2018-08-24T23:23:50.768Z,81.10
2018-08-24T23:26:19.837Z,81.20
2018-08-24T23:28:48.876Z,80.90
2018-08-24T23:31:17.900Z,81.80
2018-08-24T23:33:46.957Z,81.00
2018-08-24T23:36:16.117Z,80.90
2018-08-24T23:38:45.148Z,81.40
2018-08-24T23:41:14.213Z,81.20
2018-08-24T23:43:43.326Z,82.10
2018-08-24T23:46:12.836Z,82.80
2018-08-24T23:48:41.957Z,83.50
2018-08-24T23:51:11.037Z,84.00
2018-08-24T23:53:40.192Z,83.70
2018-08-24T23:56:09.296Z,83.80
2018-08-24T23:58:38.578Z,84.60
